Time;durP1;ratioP1;P1;durP2;ratioP2;P2;SDS_P1;SDS_P2;PMS_P1;PMS_P2;Temp;Humidity;BMP_temperature;BMP_pressure;BME280_temperature;BME280_humidity;BME280_pressure;Samples;Min_cycle;Max_cycle;Signal;HPM_P1;HPM_P2
2023/09/23 00:00:15;;;;;;;10.13;7.35;;;;;;;12.06;100.00;100498.13;4956930;28;20119;-51
2023/09/23 00:02:44;;;;;;;10.88;8.60;;;;;;;11.80;100.00;100437.72;4955028;28;20051;-52
2023/09/23 00:05:12;;;;;;;10.68;8.30;;;;;;;12.20;100.00;100505.44;4956715;28;20039;-55
2023/09/23 00:07:41;;;;;;;8.85;7.43;;;;;;;12.12;100.00;100499.63;4956411;28;20074;-55
2023/09/23 00:10:08;;;;;;;8.05;6.43;;;;;;;11.73;100.00;100446.84;4956354;28;20734;-56
2023/09/23 00:12:43;;;;;;;7.40;6.25;;;;;;;12.06;100.00;100511.31;4956839;28;20069;-51
2023/09/23 00:15:12;;;;;;;5.20;4.70;;;;;;;11.59;100.00;100439.47;4955440;29;20063;-51
2023/09/23 00:17:45;;;;;;;4.90;4.28;;;;;;;11.87;100.00;100507.75;4956508;28;20071;-50
2023/09/23 00:20:16;;;;;;;6.80;4.13;;;;;;;11.80;100.00;100507.16;4955032;28;20043;-54
2023/09/23 00:22:42;;;;;;;5.25;3.10;;;;;;;11.52;100.00;100476.72;4956505;28;20023;-48
2023/09/23 00:25:08;;;;;;;4.45;2.85;;;;;;;11.18;100.00;100437.72;4956620;28;20162;-51
2023/09/23 00:27:34;;;;;;;4.03;2.45;;;;;;;11.25;100.00;100450.59;4954891;28;20093;-50
2023/09/23 00:30:00;;;;;;;4.95;2.53;;;;;;;11.64;100.00;100515.75;4956581;28;20488;-51
2023/09/23 00:32:25;;;;;;;3.35;2.20;;;;;;;11.57;100.00;100520.41;4955107;29;20482;-49
2023/09/23 00:34:51;;;;;;;4.18;2.17;;;;;;;11.53;100.00;100517.97;4960745;28;20161;-55
2023/09/23 00:37:16;;;;;;;2.88;2.13;;;;;;;11.50;100.00;100508.41;4974771;28;20501;-52
2023/09/23 00:39:42;;;;;;;2.22;1.80;;;;;;;11.59;100.00;100536.16;4974341;28;20407;-50
2023/09/23 00:42:12;;;;;;;4.80;2.80;;;;;;;11.62;100.00;100557.13;4975144;28;20054;-51
2023/09/23 00:44:40;;;;;;;6.28;3.30;;;;;;;11.59;100.00;100542.28;4975446;28;20031;-54
2023/09/23 00:47:07;;;;;;;5.60;3.80;;;;;;;11.68;100.00;100544.56;4975385;28;20367;-53
2023/09/23 00:49:34;;;;;;;10.70;6.70;;;;;;;11.39;100.00;100465.81;4975175;28;20093;-51
2023/09/23 00:52:01;;;;;;;12.90;10.07;;;;;;;11.90;100.00;100557.75;4974164;28;20046;-51
2023/09/23 00:54:26;;;;;;;15.60;12.55;;;;;;;11.83;100.00;100551.88;4974067;28;20481;-52
2023/09/23 00:56:52;;;;;;;18.35;14.25;;;;;;;11.94;100.00;100569.03;4975179;28;20035;-51
2023/09/23 00:59:17;;;;;;;20.75;15.43;;;;;;;11.87;100.00;100549.09;4973972;28;20047;-48
2023/09/23 01:01:42;;;;;;;23.30;18.27;;;;;;;11.45;100.00;100467.34;4975218;28;20031;-49
2023/09/23 01:04:13;;;;;;;27.48;19.77;;;;;;;11.96;100.00;100568.03;4957604;28;20034;-52
2023/09/23 01:06:38;;;;;;;25.55;20.42;;;;;;;11.55;100.00;100498.53;4975033;28;20053;-53
2023/09/23 01:09:10;;;;;;;26.80;21.30;;;;;;;11.68;100.00;100499.72;4974132;28;20474;-51
2023/09/23 01:11:36;;;;;;;27.63;21.90;;;;;;;12.06;100.00;100566.72;4974349;28;20399;-53
2023/09/23 01:14:02;;;;;;;33.03;22.85;;;;;;;11.99;100.00;100533.63;4974766;28;20078;-53
2023/09/23 01:16:27;;;;;;;25.65;21.92;;;;;;;12.00;100.00;100542.34;4973555;28;20453;-54
2023/09/23 01:18:53;;;;;;;28.80;21.55;;;;;;;12.06;100.00;100560.56;4974696;28;20039;-54
2023/09/23 01:21:19;;;;;;;32.67;21.92;;;;;;;12.04;100.00;100571.19;4974811;28;20074;-54
2023/09/23 01:23:45;;;;;;;29.08;21.40;;;;;;;12.10;100.00;100564.81;4974108;28;20035;-54
2023/09/23 01:26:11;;;;;;;27.13;19.83;;;;;;;11.71;100.00;100488.22;4973450;28;20027;-54
2023/09/23 01:28:37;;;;;;;29.50;19.27;;;;;;;12.02;100.00;100556.38;4974502;28;20031;-53
2023/09/23 01:31:04;;;;;;;23.58;18.83;;;;;;;12.08;100.00;100564.03;4974244;28;20034;-52
2023/09/23 01:33:29;;;;;;;28.90;19.98;;;;;;;12.08;100.00;100564.88;4973094;28;20066;-51
2023/09/23 01:35:56;;;;;;;26.02;19.20;;;;;;;11.76;100.00;100499.47;4972732;28;20472;-53
2023/09/23 01:38:22;;;;;;;27.35;20.67;;;;;;;12.04;100.00;100550.09;4973694;28;20034;-54
2023/09/23 01:40:48;;;;;;;29.17;21.08;;;;;;;12.18;100.00;100570.59;4973137;28;20161;-54
2023/09/23 01:43:14;;;;;;;28.85;20.67;;;;;;;11.81;100.00;100498.34;4974125;28;20054;-49
2023/09/23 01:45:39;;;;;;;26.38;19.85;;;;;;;12.17;100.00;100551.25;4974262;28;20130;-50
2023/09/23 01:48:05;;;;;;;32.55;21.05;;;;;;;12.27;100.00;100568.44;4973936;28;20317;-50
2023/09/23 01:50:30;;;;;;;31.85;20.75;;;;;;;12.28;100.00;100574.56;4973103;28;20066;-51
2023/09/23 01:52:59;;;;;;;24.35;19.02;;;;;;;11.87;100.00;100499.00;4974181;28;20529;-50
2023/09/23 01:55:24;;;;;;;30.88;20.92;;;;;;;12.25;100.00;100567.66;4973904;28;20046;-52
2023/09/23 01:57:50;;;;;;;32.22;21.17;;;;;;;12.36;100.00;100583.00;4973040;28;20479;-53
2023/09/23 02:00:21;;;;;;;27.75;19.30;;;;;;;12.24;100.00;100571.19;4973874;28;20089;-53
2023/09/23 02:02:53;;;;;;;30.48;20.60;;;;;;;11.64;100.00;100455.13;4974251;28;20039;-51
2023/09/23 02:05:19;;;;;;;25.17;18.73;;;;;;;12.07;100.00;100536.78;4972368;28;20118;-49
2023/09/23 02:07:47;;;;;;;28.40;18.83;;;;;;;12.29;100.00;100565.72;4974091;28;20173;-54
2023/09/23 02:10:15;;;;;;;25.20;15.75;;;;;;;12.34;100.00;100579.59;4973873;28;20050;-54
2023/09/23 02:12:43;;;;;;;22.42;14.25;;;;;;;12.25;100.00;100575.56;4972561;28;20035;-53
2023/09/23 02:15:15;;;;;;;20.77;14.40;;;;;;;11.84;100.00;100510.53;4973322;28;20462;-51
2023/09/23 02:17:47;;;;;;;15.25;12.52;;;;;;;11.85;100.00;100531.53;4973748;28;20482;-55
2023/09/23 02:20:21;;;;;;;14.18;11.13;;;;;;;12.02;100.00;100573.06;4973578;28;20446;-51
2023/09/23 02:22:49;;;;;;;15.63;11.23;;;;;;;12.06;100.00;100595.72;4972406;28;20113;-51
2023/09/23 02:25:14;;;;;;;12.55;8.60;;;;;;;11.90;100.00;100599.94;4972414;28;20078;-52
2023/09/23 02:27:41;;;;;;;11.10;8.07;;;;;;;11.82;100.00;100613.44;4973569;28;20134;-55
2023/09/23 02:30:09;;;;;;;14.25;7.45;;;;;;;11.76;100.00;100579.41;4972744;28;20031;-52
2023/09/23 02:32:38;;;;;;;9.98;7.25;;;;;;;11.78;100.00;100592.53;4956463;28;20054;-53
2023/09/23 02:35:04;;;;;;;9.05;6.25;;;;;;;11.40;100.00;100540.47;4973173;28;20035;-54
2023/09/23 02:37:29;;;;;;;9.10;5.85;;;;;;;11.70;100.00;100608.66;4972936;28;20049;-53
2023/09/23 02:39:54;;;;;;;7.63;6.00;;;;;;;11.69;100.00;100598.16;4972896;28;20038;-52
2023/09/23 02:42:20;;;;;;;5.78;5.18;;;;;;;11.64;100.00;100618.56;4973029;28;20055;-55
2023/09/23 02:44:46;;;;;;;10.20;5.07;;;;;;;11.63;100.00;100622.13;4973790;28;20406;-53
2023/09/23 02:47:11;;;;;;;10.68;5.20;;;;;;;11.64;100.00;100618.56;4971371;28;20443;-53
2023/09/23 02:49:36;;;;;;;6.95;5.35;;;;;;;11.40;100.00;100551.88;4972227;28;20482;-57
2023/09/23 02:52:02;;;;;;;9.25;5.10;;;;;;;11.77;100.00;100612.75;4973226;28;20034;-52
2023/09/23 02:54:27;;;;;;;7.65;4.50;;;;;;;11.81;100.00;100616.13;4973107;28;20042;-55
2023/09/23 02:56:53;;;;;;;7.72;4.80;;;;;;;11.73;100.00;100626.97;4972979;28;20465;-55
2023/09/23 02:59:26;;;;;;;10.23;5.03;;;;;;;11.72;100.00;100620.00;4973097;28;20035;-52
2023/09/23 03:01:53;;;;;;;7.95;4.57;;;;;;;11.71;100.00;100614.78;4972584;28;20039;-51
2023/09/23 03:04:23;;;;;;;8.38;5.00;;;;;;;11.83;100.00;100620.44;4973349;28;20039;-52
2023/09/23 03:07:01;;;;;;;6.17;4.30;;;;;;;11.83;100.00;100632.75;4971910;28;20027;-52
2023/09/23 03:09:31;;;;;;;7.95;4.05;;;;;;;11.82;100.00;100629.25;4971656;28;20486;-55
2023/09/23 03:11:57;;;;;;;9.95;4.72;;;;;;;11.84;100.00;100635.34;4971885;28;20035;-57
2023/09/23 03:14:27;;;;;;;6.30;3.85;;;;;;;11.44;100.00;100566.63;4973047;28;20050;-51
2023/09/23 03:16:54;;;;;;;6.35;3.72;;;;;;;11.56;100.00;100589.88;4972541;28;20030;-55
2023/09/23 03:19:27;;;;;;;6.90;4.63;;;;;;;11.91;100.00;100661.47;4971760;28;20023;-54
2023/09/23 03:21:55;;;;;;;4.80;4.15;;;;;;;11.97;100.00;100661.19;4972966;28;20062;-52
2023/09/23 03:24:21;;;;;;;6.38;4.10;;;;;;;11.55;100.00;100582.91;4972105;28;20038;-48
2023/09/23 03:26:46;;;;;;;6.60;3.88;;;;;;;12.12;100.00;100668.47;4973438;28;20041;-51
2023/09/23 03:29:13;;;;;;;6.85;3.83;;;;;;;12.19;100.00;100670.81;4972886;28;20118;-55
2023/09/23 03:31:39;;;;;;;9.77;4.43;;;;;;;12.21;100.00;100676.88;4972986;28;20138;-53
2023/09/23 03:34:05;;;;;;;4.38;2.97;;;;;;;11.79;100.00;100592.44;4972701;28;20129;-52
2023/09/23 03:36:31;;;;;;;5.40;2.92;;;;;;;12.04;100.00;100652.97;4970786;28;20063;-54
2023/09/23 03:39:00;;;;;;;4.30;2.60;;;;;;;11.67;100.00;100597.34;4973080;28;20074;-51
2023/09/23 03:41:27;;;;;;;5.45;2.65;;;;;;;12.00;100.00;100669.84;4972950;28;20089;-53
2023/09/23 03:43:53;;;;;;;4.43;2.67;;;;;;;11.93;100.00;100668.41;4972930;28;20042;-51
2023/09/23 03:46:18;;;;;;;4.78;3.15;;;;;;;11.88;100.00;100662.44;4972925;28;20130;-51
2023/09/23 03:48:43;;;;;;;5.93;3.65;;;;;;;11.70;100.00;100648.19;4972088;28;20038;-54
2023/09/23 03:51:09;;;;;;;7.85;4.50;;;;;;;11.84;100.00;100664.34;4971842;28;20023;-50
2023/09/23 03:53:36;;;;;;;6.47;4.32;;;;;;;11.76;100.00;100657.66;4971675;28;20045;-53
2023/09/23 03:56:01;;;;;;;7.60;5.05;;;;;;;11.53;100.00;100624.25;4971522;28;20110;-54
2023/09/23 03:58:27;;;;;;;7.00;5.40;;;;;;;11.34;100.00;100606.59;4972843;28;20113;-51
2023/09/23 04:00:54;;;;;;;10.82;6.07;;;;;;;11.55;100.00;100637.38;4973170;28;20035;-48
2023/09/23 04:03:20;;;;;;;12.45;7.75;;;;;;;11.88;100.00;100695.88;4975886;28;20031;-54
2023/09/23 04:05:57;;;;;;;10.77;7.93;;;;;;;11.91;100.00;100693.94;4974770;28;20116;-51
2023/09/23 04:08:23;;;;;;;13.23;8.93;;;;;;;11.84;100.00;100682.81;4975154;28;20031;-50
2023/09/23 04:10:48;;;;;;;14.90;9.43;;;;;;;11.97;100.00;100687.56;4975916;28;20038;-52
2023/09/23 04:13:14;;;;;;;15.90;9.90;;;;;;;11.98;100.00;100697.22;4975999;28;20043;-54
2023/09/23 04:15:40;;;;;;;15.35;10.55;;;;;;;11.55;100.00;100622.44;4975917;28;20531;-54
2023/09/23 04:18:06;;;;;;;16.98;12.02;;;;;;;12.00;100.00;100704.13;4975839;28;20044;-51
2023/09/23 04:20:32;;;;;;;17.88;12.13;;;;;;;12.04;100.00;100691.69;4974955;28;20117;-53
2023/09/23 04:22:57;;;;;;;19.55;13.07;;;;;;;11.96;100.00;100691.16;4975840;28;20041;-52
2023/09/23 04:25:23;;;;;;;23.98;14.25;;;;;;;11.61;100.00;100634.50;4975021;28;20043;-53
2023/09/23 04:27:49;;;;;;;20.48;13.32;;;;;;;11.91;100.00;100701.88;4975875;28;20043;-52
2023/09/23 04:30:15;;;;;;;19.10;13.20;;;;;;;11.56;100.00;100632.03;4975569;28;20419;-54
2023/09/23 04:32:41;;;;;;;17.80;13.50;;;;;;;11.61;100.00;100632.75;4975884;28;20039;-52
2023/09/23 04:35:14;;;;;;;18.23;14.57;;;;;;;11.65;100.00;100650.13;4974601;28;20386;-53
2023/09/23 04:37:39;;;;;;;20.20;12.65;;;;;;;11.59;100.00;100653.00;4975419;28;20035;-51
2023/09/23 04:40:09;;;;;;;18.42;12.70;;;;;;;11.51;100.00;100660.38;4975228;28;20033;-55
2023/09/23 04:42:35;;;;;;;16.05;12.13;;;;;;;11.92;100.00;100729.09;4974141;28;20062;-53
2023/09/23 04:45:01;;;;;;;16.45;12.98;;;;;;;11.48;100.00;100649.94;4975225;28;20146;-53
2023/09/23 04:47:26;;;;;;;19.80;12.43;;;;;;;11.56;100.00;100662.81;4975773;28;20525;-52
2023/09/23 04:49:53;;;;;;;22.67;14.05;;;;;;;11.64;100.00;100687.97;4974274;28;20038;-54
2023/09/23 04:52:19;;;;;;;19.25;13.05;;;;;;;11.42;100.00;100663.34;4975699;28;20534;-54
2023/09/23 04:54:44;;;;;;;18.15;13.00;;;;;;;11.85;100.00;100733.75;4973933;28;20030;-49
2023/09/23 04:57:09;;;;;;;25.65;14.02;;;;;;;11.41;100.00;100666.06;4974035;28;20038;-51
2023/09/23 04:59:35;;;;;;;19.05;12.15;;;;;;;11.47;100.00;100679.00;4975296;28;20483;-50
2023/09/23 05:02:00;;;;;;;25.33;14.40;;;;;;;11.80;100.00;100752.41;4970119;28;20050;-50
2023/09/23 05:04:26;;;;;;;16.58;12.82;;;;;;;11.32;100.00;100676.00;4972607;28;20165;-52
2023/09/23 05:06:51;;;;;;;28.85;15.07;;;;;;;11.65;100.00;100717.81;4969297;28;20067;-50
2023/09/23 05:09:16;;;;;;;19.15;13.00;;;;;;;11.55;100.00;100695.38;4963645;28;20046;-53
2023/09/23 05:11:42;;;;;;;21.38;13.10;;;;;;;11.92;100.00;100758.13;4972861;28;20479;-50
2023/09/23 05:14:07;;;;;;;20.95;12.90;;;;;;;11.52;100.00;100679.69;4972379;28;20053;-53
2023/09/23 05:16:32;;;;;;;17.45;12.50;;;;;;;11.62;100.00;100684.53;4974004;28;20491;-50
2023/09/23 05:18:58;;;;;;;13.95;12.10;;;;;;;12.09;100.00;100766.22;4974696;28;20455;-52
2023/09/23 05:21:24;;;;;;;17.30;11.18;;;;;;;12.12;100.00;100763.47;4974524;28;20074;-54
2023/09/23 05:23:50;;;;;;;15.52;10.73;;;;;;;12.09;100.00;100769.72;4974917;28;20043;-53
2023/09/23 05:26:16;;;;;;;21.05;10.13;;;;;;;12.18;100.00;100771.13;4973567;28;20097;-49
2023/09/23 05:28:42;;;;;;;14.68;9.95;;;;;;;11.87;100.00;100717.88;4973299;28;20066;-50
2023/09/23 05:31:08;;;;;;;16.48;10.60;;;;;;;11.95;100.00;100731.63;4973478;28;20042;-50
2023/09/23 05:33:33;;;;;;;14.63;9.13;;;;;;;12.24;100.00;100787.59;4974512;28;20038;-54
2023/09/23 05:35:58;;;;;;;15.52;9.35;;;;;;;11.92;100.00;100722.06;4974661;28;20066;-55
2023/09/23 05:38:24;;;;;;;13.32;9.55;;;;;;;11.89;100.00;100713.41;4974407;28;20042;-57
2023/09/23 05:40:51;;;;;;;15.93;9.98;;;;;;;12.15;100.00;100771.25;4972659;28;20406;-53
2023/09/23 05:43:17;;;;;;;13.35;8.43;;;;;;;12.30;100.00;100791.78;4973055;28;20034;-52
2023/09/23 05:45:42;;;;;;;18.48;9.38;;;;;;;12.31;100.00;100812.84;4973179;28;20066;-54
2023/09/23 05:48:09;;;;;;;15.30;8.95;;;;;;;11.87;100.00;100731.94;4973429;28;20074;-48
2023/09/23 05:50:35;;;;;;;13.75;9.38;;;;;;;12.03;100.00;100762.06;4974452;28;20117;-49
2023/09/23 05:53:00;;;;;;;14.75;8.85;;;;;;;12.40;100.00;100803.69;4974311;28;20130;-51
2023/09/23 05:55:28;;;;;;;17.08;8.52;;;;;;;12.45;100.00;100836.03;4974166;28;20035;-53
2023/09/23 05:57:53;;;;;;;15.30;9.10;;;;;;;12.13;100.00;100759.91;4972784;28;20114;-51
2023/09/23 06:00:19;;;;;;;13.35;8.43;;;;;;;12.60;100.00;100831.91;4974321;28;20121;-55
2023/09/23 06:02:45;;;;;;;11.25;7.38;;;;;;;12.64;100.00;100830.88;4974171;28;20177;-51
2023/09/23 06:05:11;;;;;;;11.10;7.18;;;;;;;12.70;100.00;100834.09;4972025;28;20105;-52
2023/09/23 06:07:37;;;;;;;13.70;6.68;;;;;;;12.69;100.00;100847.38;4972888;28;20039;-51
2023/09/23 06:10:04;;;;;;;12.82;5.80;;;;;;;12.69;100.00;100850.03;4974104;28;20398;-54
2023/09/23 06:12:30;;;;;;;12.70;5.45;;;;;;;12.70;100.00;100847.31;4973679;28;20042;-51
2023/09/23 06:14:59;;;;;;;11.57;5.07;;;;;;;12.70;100.00;100852.59;4974038;28;20081;-52
2023/09/23 06:17:25;;;;;;;9.10;4.55;;;;;;;12.25;100.00;100773.50;4972730;28;20398;-52
2023/09/23 06:19:51;;;;;;;8.02;4.68;;;;;;;12.66;100.00;100860.72;4971585;28;20038;-49
2023/09/23 06:22:17;;;;;;;8.77;4.68;;;;;;;12.26;100.00;100796.31;4973596;28;20042;-54
2023/09/23 06:24:43;;;;;;;8.85;4.57;;;;;;;12.24;100.00;100790.25;4973801;28;20047;-50
2023/09/23 06:27:08;;;;;;;9.05;4.63;;;;;;;12.33;100.00;100813.63;4972337;28;20027;-50
2023/09/23 06:29:33;;;;;;;8.77;4.47;;;;;;;12.29;100.00;100801.47;4973475;28;20035;-56
2023/09/23 06:31:59;;;;;;;7.47;5.07;;;;;;;12.34;100.00;100804.81;4973696;28;20035;-52
2023/09/23 06:34:24;;;;;;;9.85;4.95;;;;;;;12.74;100.00;100871.81;4972475;28;20043;-52
2023/09/23 06:36:49;;;;;;;10.35;5.20;;;;;;;12.95;100.00;100886.81;4973356;28;20058;-52
2023/09/23 06:39:15;;;;;;;11.43;5.13;;;;;;;12.95;100.00;100870.94;4973386;28;20077;-52
2023/09/23 06:41:40;;;;;;;12.20;5.32;;;;;;;12.72;100.00;100824.34;4973074;28;20498;-51
2023/09/23 06:44:07;;;;;;;9.27;3.90;;;;;;;13.16;100.00;100885.94;4973596;28;20081;-50
2023/09/23 06:46:32;;;;;;;8.05;4.60;;;;;;;12.89;100.00;100839.50;4972403;28;20471;-53
2023/09/23 06:48:58;;;;;;;9.77;4.75;;;;;;;13.28;100.00;100901.25;4972663;28;20093;-54
2023/09/23 06:51:23;;;;;;;7.68;3.80;;;;;;;13.44;100.00;100896.19;4972138;28;20100;-50
2023/09/23 06:53:48;;;;;;;5.63;3.60;;;;;;;13.24;100.00;100838.03;4973294;28;20406;-53
2023/09/23 06:56:13;;;;;;;8.38;3.55;;;;;;;13.76;100.00;100889.47;4973386;28;20491;-50
2023/09/23 06:58:39;;;;;;;6.38;3.63;;;;;;;14.03;100.00;100905.00;4972317;28;20039;-47
2023/09/23 07:01:04;;;;;;;4.13;2.92;;;;;;;13.90;100.00;100876.50;4973245;28;20471;-53
2023/09/23 07:03:30;;;;;;;7.28;3.30;;;;;;;14.17;100.00;100908.78;4971837;28;20538;-55
2023/09/23 07:05:55;;;;;;;7.68;3.90;;;;;;;14.17;100.00;100904.34;4973199;28;20035;-51
2023/09/23 07:08:20;;;;;;;5.57;3.60;;;;;;;14.13;100.00;100907.22;4972006;28;20148;-54
2023/09/23 07:10:46;;;;;;;5.88;3.38;;;;;;;14.04;100.00;100913.78;4972977;28;20030;-53
2023/09/23 07:13:11;;;;;;;5.20;3.13;;;;;;;13.91;100.00;100915.25;4972054;28;20118;-54
2023/09/23 07:15:37;;;;;;;7.72;3.50;;;;;;;13.84;100.00;100904.09;4973036;28;20121;-56
2023/09/23 07:18:07;;;;;;;7.63;3.55;;;;;;;13.44;100.00;100846.81;4973057;28;20063;-54
2023/09/23 07:20:33;;;;;;;5.00;3.30;;;;;;;13.54;100.00;100868.44;4972904;28;20122;-51
2023/09/23 07:22:59;;;;;;;5.22;3.33;;;;;;;13.84;100.00;100927.03;4972965;28;20494;-52
2023/09/23 07:25:25;;;;;;;9.68;3.83;;;;;;;13.85;100.00;100931.41;4971717;28;20059;-50
2023/09/23 07:27:50;;;;;;;7.15;3.60;;;;;;;13.86;100.00;100925.22;4972928;28;20077;-52
2023/09/23 07:30:15;;;;;;;13.52;3.78;;;;;;;13.81;100.00;100917.44;4972530;28;20058;-52
2023/09/23 07:32:41;;;;;;;8.25;4.05;;;;;;;13.91;100.00;100939.94;4971720;28;20047;-47
2023/09/23 07:35:07;;;;;;;7.57;3.72;;;;;;;13.77;100.00;100915.88;4972665;28;20035;-51
2023/09/23 07:37:33;;;;;;;5.38;3.72;;;;;;;13.99;100.00;100958.13;4976344;28;20512;-52
2023/09/23 07:39:58;;;;;;;9.65;3.58;;;;;;;13.96;100.00;100968.84;4976515;28;20027;-50
2023/09/23 07:42:24;;;;;;;6.72;3.35;;;;;;;13.88;100.00;100926.00;4975298;28;20387;-52
2023/09/23 07:44:49;;;;;;;8.50;4.63;;;;;;;14.00;100.00;100931.59;4976716;28;20554;-51
2023/09/23 07:47:14;;;;;;;8.00;3.85;;;;;;;14.56;100.00;100976.69;4976745;28;20394;-51
2023/09/23 07:49:40;;;;;;;10.35;4.28;;;;;;;14.65;100.00;100972.78;4975287;28;20069;-51
2023/09/23 07:52:05;;;;;;;4.72;3.60;;;;;;;14.95;100.00;100981.88;4976549;28;20107;-54
2023/09/23 07:54:30;;;;;;;5.38;3.47;;;;;;;15.10;100.00;100954.66;4976274;28;20092;-51
2023/09/23 07:56:56;;;;;;;4.38;2.28;;;;;;;15.44;100.00;100979.50;4975187;28;20038;-54
2023/09/23 07:59:21;;;;;;;6.88;2.53;;;;;;;15.27;100.00;100918.47;4976356;28;20127;-56
2023/09/23 08:01:47;;;;;;;6.70;2.38;;;;;;;15.66;100.00;100985.47;4975961;28;20062;-53
2023/09/23 08:04:12;;;;;;;5.80;2.55;;;;;;;15.50;100.00;100937.63;4975596;28;20549;-54
2023/09/23 08:06:38;;;;;;;6.53;2.28;;;;;;;15.87;100.00;100984.38;4974400;28;20042;-50
2023/09/23 08:09:04;;;;;;;5.47;2.03;;;;;;;16.06;100.00;100995.72;4975851;28;20495;-49
2023/09/23 08:11:30;;;;;;;2.85;1.50;;;;;;;15.86;100.00;100926.91;4974887;28;20039;-53
2023/09/23 08:13:56;;;;;;;3.78;2.00;;;;;;;16.58;100.00;101009.78;4973108;28;20290;-49
2023/09/23 08:16:21;;;;;;;4.57;1.23;;;;;;;16.75;100.00;101020.34;4974724;28;20047;-47
2023/09/23 08:18:46;;;;;;;5.57;1.70;;;;;;;16.93;100.00;100967.94;4976010;28;20541;-53
2023/09/23 08:21:11;;;;;;;7.47;1.20;;;;;;;17.43;100.00;101045.72;4974702;28;20047;-52
2023/09/23 08:23:37;;;;;;;3.67;1.63;;;;;;;17.53;100.00;101062.03;4975756;28;20062;-52
2023/09/23 08:26:04;;;;;;;2.80;1.10;;;;;;;17.40;100.00;101082.31;4975658;28;20035;-52
2023/09/23 08:28:30;;;;;;;3.80;1.08;;;;;;;17.39;100.00;101084.13;4974818;28;20035;-52
2023/09/23 08:30:56;;;;;;;4.80;1.50;;;;;;;17.31;100.00;101094.31;4974918;28;20437;-52
2023/09/23 08:33:21;;;;;;;3.22;1.40;;;;;;;16.73;100.00;101024.03;4974119;28;20035;-51
2023/09/23 08:35:48;;;;;;;2.38;1.00;;;;;;;17.00;100.00;101094.31;4975753;28;20382;-48
2023/09/23 08:38:14;;;;;;;5.32;1.98;;;;;;;16.84;100.00;101090.78;4975290;28;20498;-50
2023/09/23 08:40:40;;;;;;;1.98;1.40;;;;;;;16.75;100.00;101092.13;4974668;28;20039;-52
2023/09/23 08:43:06;;;;;;;3.45;1.52;;;;;;;16.66;100.00;101100.59;4974082;28;20180;-51
2023/09/23 08:45:31;;;;;;;3.50;1.13;;;;;;;16.60;100.00;101102.72;4974390;28;20438;-51
2023/09/23 08:47:57;;;;;;;3.45;1.13;;;;;;;16.44;100.00;101091.13;4973174;28;20035;-50
2023/09/23 08:50:24;;;;;;;4.65;1.38;;;;;;;16.17;100.00;101049.13;4974187;28;20034;-54
2023/09/23 08:52:50;;;;;;;2.50;1.10;;;;;;;15.91;100.00;101011.59;4974864;28;20126;-51
2023/09/23 08:55:16;;;;;;;5.28;1.30;;;;;;;16.48;100.00;101119.28;4975590;28;20134;-48
2023/09/23 08:57:42;;;;;;;3.03;1.10;;;;;;;16.37;100.00;101142.88;4975449;28;20031;-49
2023/09/23 09:00:08;;;;;;;3.58;1.35;;;;;;;15.95;100.00;101066.25;4975405;28;20098;-50
2023/09/23 09:02:34;;;;;;;7.22;1.40;;;;;;;16.20;100.00;101136.63;4975240;28;20038;-54
2023/09/23 09:04:59;;;;;;;5.32;1.60;;;;;;;16.04;100.00;101151.63;4974354;28;20114;-53
2023/09/23 09:07:32;;;;;;;3.75;1.15;;;;;;;15.10;100.00;101028.88;4975058;28;20050;-53
2023/09/23 09:09:57;;;;;;;5.20;1.00;;;;;;;15.35;100.00;101094.00;4975859;28;20534;-50
2023/09/23 09:12:23;;;;;;;3.83;0.90;;;;;;;15.60;100.00;101158.25;4975886;28;20043;-49
2023/09/23 09:14:50;;;;;;;3.15;1.30;;;;;;;15.58;100.00;101166.28;4974972;28;20186;-52
2023/09/23 09:17:16;;;;;;;5.30;1.00;;;;;;;15.27;100.00;101096.13;4974568;28;20034;-54
2023/09/23 09:19:41;;;;;;;2.90;1.10;;;;;;;15.61;100.00;101149.38;4973700;28;20122;-54
2023/09/23 09:22:07;;;;;;;0.90;0.47;;;;;;;15.72;100.00;101166.50;4973669;28;20093;-49
2023/09/23 09:24:33;;;;;;;3.50;1.00;;;;;;;15.85;100.00;101176.50;4973678;28;20045;-49
2023/09/23 09:26:58;;;;;;;2.08;0.65;;;;;;;15.68;100.00;101156.06;4974052;28;20573;-50
2023/09/23 09:29:24;;;;;;;2.78;0.63;;;;;;;15.49;100.00;101124.28;4974663;28;20035;-53
2023/09/23 09:31:51;;;;;;;6.90;1.35;;;;;;;15.89;100.00;101191.34;4973558;28;20034;-53
2023/09/23 09:34:20;;;;;;;2.92;0.80;;;;;;;15.94;100.00;101200.78;4974568;28;20427;-50
2023/09/23 09:36:45;;;;;;;2.45;0.40;;;;;;;15.98;100.00;101198.84;4973086;28;20038;-51
2023/09/23 09:39:13;;;;;;;3.08;0.85;;;;;;;15.52;100.00;101124.13;4974792;28;20077;-53
2023/09/23 09:41:46;;;;;;;1.40;0.70;;;;;;;16.02;100.00;101206.63;4971997;28;20490;-51
2023/09/23 09:44:14;;;;;;;3.03;1.08;;;;;;;15.66;100.00;101139.38;4973615;28;20031;-50
2023/09/23 09:46:41;;;;;;;1.05;0.90;;;;;;;15.59;100.00;101133.50;4971842;28;20082;-50
2023/09/23 09:49:07;;;;;;;2.45;0.82;;;;;;;15.70;100.00;101156.88;4973208;28;20097;-52
2023/09/23 09:51:35;;;;;;;3.05;0.93;;;;;;;15.72;100.00;101139.09;4972056;28;20046;-53
2023/09/23 09:54:02;;;;;;;1.98;0.93;;;;;;;16.37;100.00;101222.59;4973296;28;20114;-50
2023/09/23 09:56:28;;;;;;;5.18;1.15;;;;;;;16.54;100.00;101196.06;4972331;28;20030;-49
2023/09/23 09:58:56;;;;;;;2.75;1.00;;;;;;;16.29;100.00;101148.56;4972854;28;20081;-51
2023/09/23 10:01:22;;;;;;;3.78;1.60;;;;;;;16.90;100.00;101222.53;4971878;28;20027;-50
2023/09/23 10:03:50;;;;;;;3.08;1.08;;;;;;;16.58;100.00;101163.91;4972951;28;20039;-51
2023/09/23 10:06:18;;;;;;;4.68;1.48;;;;;;;16.62;100.00;101154.84;4971922;28;20038;-50
2023/09/23 10:08:46;;;;;;;4.78;1.23;;;;;;;16.53;100.00;101152.63;4972192;28;20049;-49
2023/09/23 10:11:11;;;;;;;3.95;1.20;;;;;;;16.45;100.00;101164.59;4971673;28;20383;-48
2023/09/23 10:13:37;;;;;;;5.03;1.20;;;;;;;16.47;100.00;101173.34;4973032;28;20043;-51
2023/09/23 10:16:14;;;;;;;2.38;1.25;;;;;;;16.46;100.00;101174.31;4972980;28;20122;-53
2023/09/23 10:18:41;;;;;;;3.67;1.42;;;;;;;16.75;100.00;101214.41;4973085;28;20475;-49
2023/09/23 10:21:07;;;;;;;5.10;1.80;;;;;;;16.44;100.00;101174.38;4971959;28;20031;-51
2023/09/23 10:23:40;;;;;;;6.63;2.72;;;;;;;17.11;100.00;101230.22;4971895;28;20521;-49
2023/09/23 10:26:16;;;;;;;7.47;2.03;;;;;;;17.42;100.00;101248.91;4971826;28;20045;-51
2023/09/23 10:28:42;;;;;;;5.55;1.88;;;;;;;17.27;100.00;101180.59;4971628;28;20039;-54
2023/09/23 10:31:07;;;;;;;6.80;1.63;;;;;;;17.47;100.00;101186.59;4972845;28;20037;-50
2023/09/23 10:33:36;;;;;;;5.90;1.52;;;;;;;18.07;100.00;101263.09;4971423;28;20043;-50
2023/09/23 10:36:03;;;;;;;4.78;1.60;;;;;;;18.27;100.00;101275.28;4959221;28;20553;-50
2023/09/23 10:38:31;;;;;;;6.70;1.50;;;;;;;18.06;100.00;101208.09;4978234;28;20034;-50
2023/09/23 10:40:57;;;;;;;3.85;1.10;;;;;;;18.67;100.00;101273.88;4974825;28;20030;-50
2023/09/23 10:43:22;;;;;;;4.53;1.25;;;;;;;18.35;100.00;101220.59;4955127;28;1090130;-50
2023/09/23 10:45:58;;;;;;;4.13;1.08;;;;;;;18.36;100.00;101227.63;4993117;28;20121;-53
2023/09/23 10:48:24;;;;;;;7.00;1.20;;;;;;;19.00;100.00;101291.38;4991520;28;20026;-51
2023/09/23 10:50:53;;;;;;;3.95;1.23;;;;;;;18.49;100.00;101226.00;4992786;28;20560;-53
2023/09/23 10:53:21;;;;;;;4.65;1.40;;;;;;;18.78;100.00;101245.59;4992992;28;20030;-48
2023/09/23 10:55:47;;;;;;;3.40;1.15;;;;;;;18.71;100.00;101244.25;4972325;28;20497;-53
2023/09/23 10:58:13;;;;;;;5.43;1.40;;;;;;;18.74;100.00;101240.56;4957736;28;20050;-50
2023/09/23 11:00:40;;;;;;;6.43;1.10;;;;;;;18.83;100.00;101239.97;4973109;28;20121;-47
2023/09/23 11:03:10;;;;;;;5.43;1.92;;;;;;;18.58;100.00;101237.94;4980458;28;20089;-48
2023/09/23 11:05:39;;;;;;;3.50;1.33;;;;;;;18.70;100.00;101311.88;4992553;28;20335;-49
2023/09/23 11:08:06;;;;;;;3.50;1.52;;;;;;;18.34;100.00;101319.28;4978905;28;20050;-52